createdAt,value
2018-11-29T00:00:46.213Z,24.33
2018-11-29T00:03:15.145Z,25.37
2018-11-29T00:05:43.960Z,24.63
2018-11-29T00:08:12.936Z,25.30
2018-11-29T00:10:41.685Z,24.93
2018-11-29T00:13:17.147Z,25.57
2018-11-29T00:15:47.932Z,25.88
2018-11-29T00:18:16.892Z,25.47
2018-11-29T00:20:45.716Z,25.35
2018-11-29T00:23:14.598Z,24.77
2018-11-29T00:25:43.318Z,25.50
2018-11-29T00:28:12.273Z,24.85
2018-11-29T00:30:40.972Z,25.20
2018-11-29T00:33:09.810Z,25.67
2018-11-29T00:35:38.715Z,25.20
2018-11-29T00:38:07.567Z,25.50
2018-11-29T00:40:36.376Z,24.97
2018-11-29T00:43:05.316Z,30.07
2018-11-29T00:45:34.104Z,26.10
2018-11-29T00:48:02.844Z,26.73
2018-11-29T00:50:31.833Z,25.83
2018-11-29T00:53:00.620Z,26.42
2018-11-29T00:55:29.412Z,26.00
2018-11-29T00:57:58.240Z,27.83
2018-11-29T01:00:26.985Z,25.53
2018-11-29T01:03:02.429Z,27.77
2018-11-29T01:05:31.185Z,25.90
2018-11-29T01:07:59.908Z,26.57
2018-11-29T01:10:28.767Z,26.83
2018-11-29T01:12:57.606Z,27.87
2018-11-29T01:15:26.382Z,27.77
2018-11-29T01:17:55.172Z,27.73
2018-11-29T01:20:24.168Z,28.03
2018-11-29T01:22:53.151Z,27.77
2018-11-29T01:25:22.996Z,27.10
2018-11-29T01:27:51.887Z,29.03
2018-11-29T01:30:21.928Z,27.37
2018-11-29T01:32:50.870Z,27.33
2018-11-29T01:35:20.360Z,28.40
2018-11-29T01:37:49.683Z,28.95
2018-11-29T01:40:23.942Z,28.55
2018-11-29T01:42:55.725Z,28.57
2018-11-29T01:45:24.699Z,28.23
2018-11-29T01:47:53.488Z,27.70
2018-11-29T01:50:22.313Z,27.63
2018-11-29T01:52:51.293Z,27.82
2018-11-29T01:55:20.081Z,27.30
2018-11-29T01:57:48.866Z,26.57
2018-11-29T02:00:18.380Z,28.07
2018-11-29T02:02:49.046Z,27.10
2018-11-29T02:05:17.760Z,26.83
2018-11-29T02:07:46.652Z,28.05
2018-11-29T02:10:21.483Z,28.55
2018-11-29T02:12:50.378Z,26.73
2018-11-29T02:15:19.144Z,28.47
2018-11-29T02:17:47.921Z,27.83
2018-11-29T02:20:17.763Z,27.40
2018-11-29T02:22:46.993Z,27.63
2018-11-29T02:25:15.734Z,28.07
2018-11-29T02:27:44.571Z,26.70
2018-11-29T02:30:18.809Z,27.60
2018-11-29T02:32:47.934Z,27.22
2018-11-29T02:35:16.698Z,27.30
2018-11-29T02:37:45.451Z,26.43
2018-11-29T02:40:15.372Z,28.23
2018-11-29T02:42:44.483Z,27.60
2018-11-29T02:45:14.577Z,25.90
2018-11-29T02:47:43.511Z,27.40
2018-11-29T02:50:12.617Z,27.80
2018-11-29T02:52:41.370Z,26.93
2018-11-29T02:55:11.214Z,28.20
2018-11-29T02:57:40.052Z,27.50
2018-11-29T03:00:12.677Z,28.42
2018-11-29T03:02:41.529Z,26.80
2018-11-29T03:05:10.415Z,26.80
2018-11-29T03:07:39.621Z,27.47
2018-11-29T03:10:10.586Z,26.57
2018-11-29T03:12:39.347Z,26.53
2018-11-29T03:15:11.650Z,28.60
2018-11-29T03:17:40.496Z,27.07
2018-11-29T03:20:10.664Z,27.07
2018-11-29T03:22:39.619Z,27.10
2018-11-29T03:25:10.807Z,28.30
2018-11-29T03:27:39.571Z,28.27
2018-11-29T03:30:16.453Z,28.27
2018-11-29T03:32:45.241Z,27.42
2018-11-29T03:35:14.743Z,28.97
2018-11-29T03:37:43.553Z,28.50
2018-11-29T03:40:13.445Z,28.20
2018-11-29T03:42:42.200Z,27.50
2018-11-29T03:45:13.815Z,27.62
2018-11-29T03:47:42.555Z,27.63
2018-11-29T03:50:12.635Z,28.07
2018-11-29T03:52:41.379Z,29.43
2018-11-29T03:55:11.121Z,27.47
2018-11-29T03:57:40.368Z,27.50
2018-11-29T04:00:17.006Z,26.67
2018-11-29T04:02:47.513Z,28.27
2018-11-29T04:05:16.410Z,28.63
2018-11-29T04:07:45.247Z,26.90
2018-11-29T04:10:15.934Z,27.30
2018-11-29T04:12:44.803Z,26.50
2018-11-29T04:15:15.132Z,27.70
2018-11-29T04:17:44.269Z,28.20
2018-11-29T04:20:14.062Z,27.80
2018-11-29T04:22:43.896Z,27.98
2018-11-29T04:25:13.810Z,30.90
2018-11-29T04:27:42.602Z,29.83
2018-11-29T04:30:16.298Z,29.60
2018-11-29T04:32:45.400Z,30.15
2018-11-29T04:35:14.594Z,29.03
2018-11-29T04:37:43.528Z,29.25
2018-11-29T04:40:14.458Z,29.03
2018-11-29T04:42:43.365Z,30.70
2018-11-29T04:45:14.308Z,29.30
2018-11-29T04:47:43.138Z,29.20
2018-11-29T04:50:11.906Z,30.07
2018-11-29T04:52:40.711Z,30.27
2018-11-29T04:55:10.853Z,30.60
2018-11-29T04:57:39.706Z,30.13
2018-11-29T05:00:14.480Z,30.43
2018-11-29T05:02:43.439Z,30.50
2018-11-29T05:05:12.866Z,29.77
2018-11-29T05:07:41.759Z,30.57
2018-11-29T05:10:12.060Z,30.37
2018-11-29T05:12:40.880Z,30.80
2018-11-29T05:15:11.722Z,31.10
2018-11-29T05:17:40.538Z,29.80
2018-11-29T05:20:09.761Z,31.67
2018-11-29T05:22:38.660Z,31.23
2018-11-29T05:25:08.902Z,30.80
2018-11-29T05:27:38.180Z,30.02
2018-11-29T05:30:13.621Z,31.97
2018-11-29T05:32:42.379Z,31.68
2018-11-29T05:35:12.100Z,30.72
2018-11-29T05:37:41.294Z,31.47
2018-11-29T05:40:11.663Z,31.95
2018-11-29T05:42:40.545Z,31.00
2018-11-29T05:45:10.911Z,29.63
2018-11-29T05:47:39.721Z,31.00
2018-11-29T05:50:10.702Z,30.20
2018-11-29T05:52:39.922Z,31.53
2018-11-29T05:55:10.565Z,29.97
2018-11-29T05:57:39.376Z,33.47
2018-11-29T06:00:17.031Z,32.10
2018-11-29T06:02:45.932Z,30.32
2018-11-29T06:05:16.252Z,31.47
2018-11-29T06:07:45.412Z,32.65
2018-11-29T06:10:18.067Z,32.58
2018-11-29T06:12:47.202Z,32.07
2018-11-29T06:15:15.984Z,33.37
2018-11-29T06:17:44.739Z,33.00
2018-11-29T06:20:16.840Z,32.37
2018-11-29T06:22:45.582Z,32.77
2018-11-29T06:25:14.512Z,32.97
2018-11-29T06:27:43.444Z,31.90
2018-11-29T06:30:17.507Z,31.80
2018-11-29T06:32:46.717Z,32.60
2018-11-29T06:35:15.476Z,32.00
2018-11-29T06:37:44.225Z,32.70
2018-11-29T06:40:14.029Z,31.33
2018-11-29T06:42:42.752Z,33.33
2018-11-29T06:45:26.450Z,33.57
2018-11-29T06:47:55.252Z,29.85
2018-11-29T06:50:23.957Z,30.32
2018-11-29T06:52:53.067Z,31.70
2018-11-29T06:55:22.812Z,31.60
2018-11-29T06:57:52.006Z,32.67
2018-11-29T07:00:31.783Z,32.07
2018-11-29T07:03:00.522Z,32.07
2018-11-29T07:05:29.309Z,31.90
2018-11-29T07:07:58.096Z,30.93
2018-11-29T07:10:34.403Z,31.30
2018-11-29T07:13:04.185Z,30.47
2018-11-29T07:15:32.891Z,31.50
2018-11-29T07:18:01.644Z,31.37
2018-11-29T07:20:30.485Z,31.60
2018-11-29T07:22:59.269Z,31.73
2018-11-29T07:25:28.089Z,32.23
2018-11-29T07:27:57.023Z,31.80
2018-11-29T07:30:25.813Z,32.70
2018-11-29T07:32:54.591Z,31.95
2018-11-29T07:35:23.813Z,31.97
2018-11-29T07:37:52.537Z,31.43
2018-11-29T07:40:21.369Z,32.23
2018-11-29T07:42:53.601Z,32.13
2018-11-29T07:45:22.488Z,32.20
2018-11-29T07:47:51.193Z,32.17
2018-11-29T07:50:22.930Z,33.38
2018-11-29T07:52:51.649Z,31.13
2018-11-29T07:55:21.494Z,30.97
2018-11-29T07:57:51.579Z,32.33
2018-11-29T08:00:20.358Z,32.07
2018-11-29T08:02:49.079Z,32.80
2018-11-29T08:05:18.219Z,32.13
2018-11-29T08:07:47.992Z,33.03
2018-11-29T08:10:18.705Z,30.27
2018-11-29T08:12:47.616Z,31.53
2018-11-29T08:15:18.793Z,31.40
2018-11-29T08:17:47.945Z,39.35
2018-11-29T08:20:17.961Z,31.33
2018-11-29T08:22:46.830Z,31.17
2018-11-29T08:25:15.749Z,30.30
2018-11-29T08:27:44.609Z,30.57
2018-11-29T08:30:14.880Z,31.50
2018-11-29T08:32:44.160Z,30.48
2018-11-29T08:35:14.008Z,30.80
2018-11-29T08:37:43.829Z,30.33
2018-11-29T08:40:14.339Z,31.37
2018-11-29T08:42:43.716Z,31.45
2018-11-29T08:45:12.709Z,30.13
2018-11-29T08:47:41.833Z,29.35
2018-11-29T08:50:11.821Z,31.65
2018-11-29T08:52:41.122Z,30.17
2018-11-29T08:55:13.970Z,31.70
2018-11-29T08:57:42.971Z,28.95
2018-11-29T09:00:16.557Z,30.47
2018-11-29T09:02:45.284Z,31.17
2018-11-29T09:05:14.327Z,29.87
2018-11-29T09:07:44.048Z,29.33
2018-11-29T09:10:14.233Z,29.33
2018-11-29T09:12:43.159Z,29.45
2018-11-29T09:15:14.490Z,28.57
2018-11-29T09:17:43.530Z,30.35
2018-11-29T09:20:20.891Z,28.70
2018-11-29T09:22:49.627Z,29.57
2018-11-29T09:25:19.589Z,29.23
2018-11-29T09:27:48.496Z,28.03
2018-11-29T09:30:20.225Z,28.53
2018-11-29T09:32:50.101Z,29.40
2018-11-29T09:35:18.896Z,27.70
2018-11-29T09:37:47.590Z,27.17
2018-11-29T09:40:17.381Z,27.97
2018-11-29T09:42:46.209Z,27.50
2018-11-29T09:45:15.969Z,28.33
2018-11-29T09:47:45.683Z,27.53
2018-11-29T09:50:15.262Z,29.97
2018-11-29T09:52:43.986Z,27.85
2018-11-29T09:55:13.841Z,27.60
2018-11-29T09:57:42.990Z,27.40
2018-11-29T10:00:27.567Z,27.23
2018-11-29T10:03:00.494Z,28.55
2018-11-29T10:05:29.612Z,26.10
2018-11-29T10:07:58.332Z,26.83
2018-11-29T10:10:27.040Z,26.63
2018-11-29T10:12:55.797Z,27.20
2018-11-29T10:15:30.784Z,27.73
2018-11-29T10:17:59.621Z,26.03
2018-11-29T10:20:28.366Z,27.10
2018-11-29T10:22:57.219Z,26.97
2018-11-29T10:25:26.048Z,27.57
2018-11-29T10:27:58.235Z,25.07
2018-11-29T10:30:28.779Z,25.67
2018-11-29T10:32:57.589Z,26.73
2018-11-29T10:35:26.351Z,26.40
2018-11-29T10:37:56.089Z,26.67
2018-11-29T10:40:24.801Z,25.80
2018-11-29T10:42:53.595Z,25.27
2018-11-29T10:45:22.770Z,26.13
2018-11-29T10:47:52.985Z,25.97
2018-11-29T10:50:21.702Z,26.25
2018-11-29T10:52:50.488Z,26.20
2018-11-29T10:55:20.088Z,25.82
2018-11-29T10:57:48.885Z,26.03
2018-11-29T11:00:24.915Z,25.08
2018-11-29T11:02:59.807Z,26.07
2018-11-29T11:05:28.822Z,25.60
2018-11-29T11:07:59.779Z,25.47
2018-11-29T11:10:28.549Z,25.57
2018-11-29T11:12:57.524Z,25.27
2018-11-29T11:15:26.403Z,24.20
2018-11-29T11:17:55.230Z,25.85
2018-11-29T11:20:24.329Z,24.00
2018-11-29T11:22:53.424Z,24.27
2018-11-29T11:25:22.169Z,24.40
2018-11-29T11:27:51.204Z,24.57
2018-11-29T11:30:21.112Z,25.03
2018-11-29T11:32:51.050Z,23.97
2018-11-29T11:35:20.135Z,23.70
2018-11-29T11:37:48.911Z,22.60
2018-11-29T11:40:18.035Z,24.67
2018-11-29T11:42:47.510Z,24.07
2018-11-29T11:45:18.380Z,24.55
2018-11-29T11:47:47.221Z,23.80
2018-11-29T11:50:18.710Z,23.87
2018-11-29T11:52:47.476Z,25.97
2018-11-29T11:55:18.867Z,24.72
2018-11-29T11:57:45.974Z,26.13
2018-11-29T12:00:23.604Z,23.47
2018-11-29T12:03:06.203Z,24.10
2018-11-29T12:05:35.278Z,25.13
2018-11-29T12:08:04.144Z,23.70
2018-11-29T12:10:33.108Z,23.23
2018-11-29T12:13:01.838Z,23.67
2018-11-29T12:15:30.748Z,23.92
2018-11-29T12:17:59.750Z,23.43
2018-11-29T12:20:28.501Z,23.80
2018-11-29T12:22:57.676Z,24.23
2018-11-29T12:25:26.768Z,24.57
2018-11-29T12:27:55.558Z,24.02
2018-11-29T12:30:26.437Z,22.47
2018-11-29T12:33:00.408Z,23.90
2018-11-29T12:35:29.344Z,22.23
2018-11-29T12:37:58.152Z,23.67
2018-11-29T12:40:27.280Z,23.83
2018-11-29T12:42:56.134Z,23.07
2018-11-29T12:45:24.985Z,22.05
2018-11-29T12:47:53.913Z,22.47
2018-11-29T12:50:24.001Z,23.70
2018-11-29T12:52:52.921Z,23.05
2018-11-29T12:55:22.953Z,22.98
2018-11-29T12:58:04.428Z,23.27
2018-11-29T13:00:21.430Z,23.35
2018-11-29T13:02:52.693Z,22.77
2018-11-29T13:05:21.613Z,22.60
2018-11-29T13:07:50.466Z,21.10
2018-11-29T13:10:20.369Z,23.50
2018-11-29T13:12:49.397Z,23.10
2018-11-29T13:15:24.618Z,22.70
2018-11-29T13:17:54.038Z,22.73
2018-11-29T13:20:22.830Z,22.60
2018-11-29T13:22:51.892Z,22.00
2018-11-29T13:25:21.545Z,21.30
2018-11-29T13:27:50.398Z,22.07
2018-11-29T13:30:20.611Z,21.40
2018-11-29T13:32:50.644Z,20.90
2018-11-29T13:35:22.140Z,20.67
2018-11-29T13:37:56.106Z,22.87
2018-11-29T13:40:25.184Z,21.77
2018-11-29T13:42:54.021Z,21.00
2018-11-29T13:45:22.798Z,22.27
2018-11-29T13:47:51.837Z,21.42
2018-11-29T13:50:20.803Z,20.80
2018-11-29T13:52:49.665Z,21.62
2018-11-29T13:55:19.381Z,21.07
2018-11-29T13:57:50.380Z,21.90
2018-11-29T14:00:20.173Z,20.15
2018-11-29T14:02:51.061Z,22.73
2018-11-29T14:05:19.961Z,20.53
2018-11-29T14:07:48.891Z,19.87
2018-11-29T14:10:19.511Z,19.37
2018-11-29T14:12:49.796Z,20.03
2018-11-29T14:15:19.748Z,19.10
2018-11-29T14:17:48.523Z,18.90
2018-11-29T14:20:17.456Z,19.53
2018-11-29T14:22:46.222Z,19.02
2018-11-29T14:25:15.850Z,19.30
2018-11-29T14:27:49.042Z,19.23
2018-11-29T14:30:25.551Z,19.17
2018-11-29T14:32:55.303Z,19.37
2018-11-29T14:35:24.842Z,18.67
2018-11-29T14:37:53.716Z,17.60
2018-11-29T14:40:23.667Z,17.77
2018-11-29T14:42:52.491Z,17.83
2018-11-29T14:45:22.452Z,17.73
2018-11-29T14:47:51.345Z,18.07
2018-11-29T14:50:25.576Z,19.40
2018-11-29T14:52:54.490Z,17.57
2018-11-29T14:55:23.283Z,17.80
2018-11-29T14:57:52.129Z,17.80
2018-11-29T15:00:21.034Z,17.70
2018-11-29T15:02:49.924Z,18.17
2018-11-29T15:05:25.259Z,18.80
2018-11-29T15:07:54.128Z,17.62
2018-11-29T15:10:22.873Z,16.95
2018-11-29T15:12:51.704Z,16.93
2018-11-29T15:15:20.492Z,17.33
2018-11-29T15:17:50.231Z,17.13
2018-11-29T15:20:25.084Z,17.12
2018-11-29T15:22:53.870Z,17.17
2018-11-29T15:25:22.673Z,16.85
2018-11-29T15:27:51.507Z,17.57
2018-11-29T15:30:21.543Z,17.50
2018-11-29T15:32:50.300Z,16.42
2018-11-29T15:35:19.094Z,16.33
2018-11-29T15:37:48.045Z,16.57
2018-11-29T15:40:17.688Z,17.60
2018-11-29T15:42:46.723Z,16.03
2018-11-29T15:45:30.321Z,16.27
2018-11-29T15:47:59.079Z,16.20
2018-11-29T15:50:28.201Z,16.10
2018-11-29T15:52:57.246Z,21.15
2018-11-29T15:55:26.039Z,17.50
2018-11-29T15:57:55.189Z,16.02
2018-11-29T16:00:25.919Z,15.93
2018-11-29T16:02:55.679Z,16.27
2018-11-29T16:05:24.460Z,15.93
2018-11-29T16:07:53.292Z,16.05
2018-11-29T16:10:24.016Z,15.07
2018-11-29T16:12:52.790Z,15.63
2018-11-29T16:15:22.049Z,16.00
2018-11-29T16:17:51.850Z,16.02
2018-11-29T16:20:22.803Z,15.03
2018-11-29T16:22:51.565Z,14.98
2018-11-29T16:25:20.445Z,14.15
2018-11-29T16:27:49.235Z,14.93
2018-11-29T16:33:09.817Z,14.43
2018-11-29T16:35:39.427Z,15.15
2018-11-29T16:38:08.490Z,15.43
2018-11-29T16:40:37.825Z,14.98
2018-11-29T16:43:07.497Z,15.33
2018-11-29T16:45:36.830Z,15.93
2018-11-29T16:48:05.828Z,16.57
2018-11-29T16:50:34.783Z,15.33
2018-11-29T16:53:03.484Z,13.60
2018-11-29T16:55:32.245Z,14.70
2018-11-29T16:58:10.736Z,14.23
2018-11-29T17:00:39.552Z,14.63
2018-11-29T17:03:08.308Z,14.10
2018-11-29T17:05:37.096Z,14.07
2018-11-29T17:08:06.354Z,13.83
2018-11-29T17:10:35.259Z,13.80
2018-11-29T17:13:08.244Z,13.43
2018-11-29T17:15:37.120Z,14.03
2018-11-29T17:18:05.961Z,13.37
2018-11-29T17:20:35.164Z,13.70
2018-11-29T17:23:03.887Z,13.67
2018-11-29T17:25:33.361Z,13.57
2018-11-29T17:28:02.323Z,13.30
2018-11-29T17:30:31.222Z,13.23
2018-11-29T17:33:00.316Z,13.43
2018-11-29T17:35:29.268Z,13.60
2018-11-29T17:37:59.352Z,12.57
2018-11-29T17:40:28.432Z,13.00
2018-11-29T17:42:57.879Z,13.23
2018-11-29T17:45:29.228Z,13.37
2018-11-29T17:47:59.428Z,12.97
2018-11-29T17:50:34.459Z,13.20
2018-11-29T17:53:03.554Z,13.07
2018-11-29T17:55:32.777Z,13.53
2018-11-29T17:58:01.718Z,12.45
2018-11-29T18:00:32.420Z,13.80
2018-11-29T18:03:01.162Z,13.10
2018-11-29T18:05:29.914Z,12.37
2018-11-29T18:07:58.912Z,13.90
2018-11-29T18:10:29.769Z,13.13
2018-11-29T18:13:01.192Z,12.47
2018-11-29T18:15:31.649Z,13.47
2018-11-29T18:18:00.380Z,12.88
2018-11-29T18:20:29.504Z,13.10
2018-11-29T18:22:59.081Z,13.00
2018-11-29T18:25:27.895Z,13.10
2018-11-29T18:27:57.435Z,12.83
2018-11-29T18:30:26.170Z,13.23
2018-11-29T18:32:54.897Z,12.25
2018-11-29T18:35:23.810Z,12.90
2018-11-29T18:37:52.555Z,12.58
2018-11-29T18:40:22.364Z,12.43
2018-11-29T18:42:52.712Z,12.77
2018-11-29T18:45:21.605Z,11.43
2018-11-29T18:47:52.208Z,12.20
2018-11-29T18:50:22.351Z,11.33
2018-11-29T18:52:51.445Z,12.25
2018-11-29T18:55:21.073Z,11.63
2018-11-29T18:57:50.461Z,11.75
2018-11-29T19:00:26.520Z,12.80
2018-11-29T19:02:57.065Z,12.57
2018-11-29T19:05:24.535Z,11.73
2018-11-29T19:07:53.666Z,11.97
2018-11-29T19:10:22.778Z,12.00
2018-11-29T19:12:56.018Z,12.53
2018-11-29T19:15:25.081Z,11.97
2018-11-29T19:17:54.105Z,12.63
2018-11-29T19:20:22.881Z,12.80
2018-11-29T19:22:51.631Z,13.88
2018-11-29T19:25:20.851Z,12.43
2018-11-29T19:27:49.746Z,12.75
2018-11-29T19:30:24.233Z,11.53
2018-11-29T19:32:59.989Z,12.50
2018-11-29T19:35:29.165Z,12.23
2018-11-29T19:37:57.966Z,11.47
2018-11-29T19:40:26.793Z,11.85
2018-11-29T19:42:56.082Z,12.03
2018-11-29T19:45:24.984Z,11.80
2018-11-29T19:47:53.705Z,11.83
2018-11-29T19:50:22.679Z,11.80
2018-11-29T19:52:52.959Z,11.23
2018-11-29T19:55:24.150Z,11.38
2018-11-29T19:57:53.093Z,11.57
2018-11-29T20:00:23.890Z,11.33
2018-11-29T20:02:54.186Z,11.40
2018-11-29T20:05:23.030Z,11.27
2018-11-29T20:07:52.024Z,11.05
2018-11-29T20:10:20.857Z,11.53
2018-11-29T20:12:55.881Z,11.00
2018-11-29T20:15:24.784Z,11.80
2018-11-29T20:17:53.704Z,10.82
2018-11-29T20:20:22.590Z,10.23
2018-11-29T20:22:51.478Z,10.93
2018-11-29T20:25:21.562Z,10.67
2018-11-29T20:27:50.289Z,10.90
2018-11-29T20:30:20.296Z,11.03
2018-11-29T20:32:50.345Z,10.98
2018-11-29T20:35:19.796Z,11.23
2018-11-29T20:37:49.638Z,10.60
2018-11-29T20:40:20.037Z,11.10
2018-11-29T20:42:49.824Z,10.82
2018-11-29T20:45:35.272Z,11.37
2018-11-29T20:48:21.378Z,10.87
2018-11-29T20:50:50.802Z,11.10
2018-11-29T20:53:21.659Z,11.83
2018-11-29T20:55:50.398Z,11.45
2018-11-29T20:58:19.189Z,11.57
2018-11-29T21:00:48.003Z,11.25
2018-11-29T21:03:16.788Z,11.12
2018-11-29T21:05:45.861Z,10.60
2018-11-29T21:08:14.628Z,11.43
2018-11-29T21:10:43.458Z,10.50
2018-11-29T21:13:12.773Z,11.07
2018-11-29T21:15:42.688Z,11.53
2018-11-29T21:18:14.049Z,10.53
2018-11-29T21:20:43.680Z,11.00
2018-11-29T21:23:15.711Z,11.47
2018-11-29T21:25:45.112Z,11.47
2018-11-29T21:28:13.857Z,11.13
2018-11-29T21:30:42.778Z,11.40
2018-11-29T21:33:11.913Z,11.30
2018-11-29T21:35:40.656Z,11.10
2018-11-29T21:38:13.210Z,11.25
2018-11-29T21:40:43.734Z,10.50
2018-11-29T21:43:12.523Z,10.83
2018-11-29T21:45:41.488Z,10.90
2018-11-29T21:48:10.305Z,11.00
2018-11-29T21:50:39.993Z,11.20
2018-11-29T21:53:08.904Z,11.37
2018-11-29T21:55:37.688Z,11.07
2018-11-29T21:58:06.608Z,10.33
2018-11-29T22:00:35.707Z,10.40
2018-11-29T22:03:04.804Z,10.53
2018-11-29T22:05:33.930Z,9.97
2018-11-29T22:08:02.934Z,14.00
2018-11-29T22:10:31.648Z,9.73
2018-11-29T22:13:00.831Z,9.70
2018-11-29T22:15:29.501Z,10.10
2018-11-29T22:18:31.955Z,10.10
2018-11-29T22:21:02.946Z,9.57
2018-11-29T22:23:32.996Z,10.00
2018-11-29T22:26:03.115Z,11.17
2018-11-29T22:28:32.106Z,9.58
2018-11-29T22:31:00.864Z,9.73
2018-11-29T22:33:29.622Z,8.87
2018-11-29T22:35:58.365Z,8.93
2018-11-29T22:38:27.131Z,9.28
2018-11-29T22:40:56.115Z,9.37
2018-11-29T22:43:25.142Z,9.15
2018-11-29T22:45:54.131Z,9.85
2018-11-29T22:48:23.125Z,9.73
2018-11-29T22:50:52.144Z,9.03
2018-11-29T22:53:21.115Z,9.00
2018-11-29T22:55:50.132Z,9.73
2018-11-29T22:58:18.997Z,8.75
2018-11-29T23:00:52.575Z,9.00
2018-11-29T23:03:21.587Z,8.70
2018-11-29T23:05:50.380Z,9.00
2018-11-29T23:08:19.492Z,8.50
2018-11-29T23:10:49.004Z,9.07
2018-11-29T23:13:18.800Z,8.47
2018-11-29T23:15:47.685Z,8.13
2018-11-29T23:18:16.586Z,8.43
2018-11-29T23:20:45.276Z,9.00
2018-11-29T23:23:14.341Z,8.83
2018-11-29T23:25:43.143Z,8.20
2018-11-29T23:28:12.027Z,8.68
2018-11-29T23:30:40.848Z,8.27
2018-11-29T23:33:10.331Z,8.23
2018-11-29T23:35:40.243Z,8.10
2018-11-29T23:43:07.565Z,8.38
2018-11-29T23:45:36.521Z,8.17
2018-11-29T23:48:05.349Z,7.70
2018-11-29T23:50:34.208Z,8.57
2018-11-29T23:53:03.146Z,8.07
2018-11-29T23:55:32.242Z,8.57
2018-11-29T23:58:01.237Z,8.30
